Flight Track Log - Related Links

Times and Time Zones

All times are in EDT time to prevent confusion due to time zone crossing. See the DLH2061 flight status page for this flight to view local times or setup timezone preferences in your user account.


Time Position Orientation Groundspeed Altitude Reporting Facility
EDT Latitude Longitude Course Direction KTS MPH feet Rate Location/Type
Wed 03:51:00 AM 50.7774 11.0120 167° South  Level Estimated
Wed 03:52:00 AM 50.6675 11.0488 168° South  Level Estimated
Wed 03:53:00 AM 50.5576 11.0855 168° South  Level Estimated
Wed 03:54:00 AM 50.4477 11.1220 168° South  Level Estimated
Wed 03:55:00 AM 50.3378 11.1583 168° South  Level Estimated
Wed 03:56:00 AM 50.2278 11.1945 168° South  Level Estimated
Wed 03:57:00 AM 50.1179 11.2305 168° South  Level Estimated
Wed 03:58:00 AM 50.0079 11.2664 168° South  Level Estimated
Wed 03:59:00 AM 49.8979 11.3020 168° South  Level Estimated
Wed 04:00:00 AM 49.7879 11.3376 168° South  Level Estimated
Wed 04:01:00 AM 49.6779 11.3729 168° South  Level Estimated
Wed 04:02:00 AM 49.5679 11.4081 168° South  Level Estimated
Wed 04:03:00 AM 49.4579 11.4431 168° South  Level Estimated
Wed 04:04:00 AM 49.3479 11.4780 168° South  Level Estimated
Wed 04:05:00 AM 49.2378 11.5127 168° South  Level Estimated
Wed 04:06:00 AM 49.1278 11.5473 168° South  Level Estimated
Wed 04:07:00 AM 49.0177 11.5817 168° South  Level Estimated
Wed 04:08:00 AM 48.9076 11.6160 168° South  Level Estimated
Wed 04:09:00 AM 48.7976 11.6501 168° South  Level Estimated
Wed 04:10:00 AM 48.6875 11.6841 168° South  Level Estimated
Wed 04:11:00 AM 48.5774 11.7179 169° South  Level Estimated
Wed 04:12:00 AM 48.4673 11.7515 169° South  Level Estimated
Wed 04:13:00 AM 48.3571 11.7851 169° South  Level Estimated
Wed 04:14:00 AM 48.3538 11.7861 169° South  Level Estimated
Wed 04:15:00 AM 48.3538 11.7861 318° Northwest  Level Estimated
Wed 04:16:00 AM 48.3538 11.7861 318° Northwest  Level Estimated
Wed 04:17:00 AM 48.3538 11.7861 318° Northwest  Level Estimated
Wed 04:18:00 AM 48.3538 11.7861 318° Northwest  Level Estimated
Wed 04:19:00 AM 48.3538 11.7861 318° Northwest  Level Estimated
Wed 04:20:00 AM 48.3538 11.7861 318° Northwest  Level Estimated
Wed 04:21:00 AM 48.3538 11.7861 318° Northwest  Level Estimated
Wed 04:22:00 AM 48.3538 11.7861 318° Northwest  Level Estimated

Login

Don't have an account? Register now (free) for customized features, flight alerts, and more!